sensor_id;sensor_type;location;lat;lon;timestamp;P1;durP1;ratioP1;P2;durP2;ratioP2
78148;SDS011;67396;42.664;23.382;2023-08-17T00:01:19;12.25;;;7.47;;
78148;SDS011;67396;42.664;23.382;2023-08-17T00:03:45;13.98;;;8.50;;
78148;SDS011;67396;42.664;23.382;2023-08-17T00:06:10;10.35;;;6.93;;
78148;SDS011;67396;42.664;23.382;2023-08-17T00:08:35;12.45;;;7.70;;
78148;SDS011;67396;42.664;23.382;2023-08-17T00:11:01;13.25;;;8.15;;
78148;SDS011;67396;42.664;23.382;2023-08-17T00:13:26;10.75;;;7.55;;
78148;SDS011;67396;42.664;23.382;2023-08-17T00:15:52;11.98;;;7.32;;
78148;SDS011;67396;42.664;23.382;2023-08-17T00:18:17;12.38;;;7.63;;
78148;SDS011;67396;42.664;23.382;2023-08-17T00:20:43;12.98;;;7.63;;
78148;SDS011;67396;42.664;23.382;2023-08-17T00:23:09;10.63;;;6.70;;
78148;SDS011;67396;42.664;23.382;2023-08-17T00:25:35;10.48;;;7.28;;
78148;SDS011;67396;42.664;23.382;2023-08-17T00:28:00;13.30;;;7.40;;
78148;SDS011;67396;42.664;23.382;2023-08-17T00:30:26;14.57;;;6.50;;
78148;SDS011;67396;42.664;23.382;2023-08-17T00:32:51;10.80;;;6.57;;
78148;SDS011;67396;42.664;23.382;2023-08-17T00:35:16;11.38;;;6.10;;
78148;SDS011;67396;42.664;23.382;2023-08-17T00:37:43;13.18;;;7.05;;
78148;SDS011;67396;42.664;23.382;2023-08-17T00:40:08;10.95;;;6.55;;
78148;SDS011;67396;42.664;23.382;2023-08-17T00:42:34;9.32;;;6.10;;
78148;SDS011;67396;42.664;23.382;2023-08-17T00:44:59;8.48;;;6.22;;
78148;SDS011;67396;42.664;23.382;2023-08-17T00:47:25;9.98;;;6.15;;
78148;SDS011;67396;42.664;23.382;2023-08-17T00:49:51;10.07;;;5.75;;
78148;SDS011;67396;42.664;23.382;2023-08-17T00:52:16;11.85;;;5.50;;
78148;SDS011;67396;42.664;23.382;2023-08-17T00:54:42;9.98;;;5.32;;
78148;SDS011;67396;42.664;23.382;2023-08-17T00:57:08;13.65;;;5.38;;
78148;SDS011;67396;42.664;23.382;2023-08-17T00:59:34;9.55;;;5.18;;
78148;SDS011;67396;42.664;23.382;2023-08-17T01:02:00;7.55;;;5.05;;
78148;SDS011;67396;42.664;23.382;2023-08-17T01:04:26;8.55;;;5.40;;
78148;SDS011;67396;42.664;23.382;2023-08-17T01:06:52;8.18;;;5.35;;
78148;SDS011;67396;42.664;23.382;2023-08-17T01:09:17;7.32;;;5.13;;
78148;SDS011;67396;42.664;23.382;2023-08-17T01:12:00;10.07;;;4.65;;
78148;SDS011;67396;42.664;23.382;2023-08-17T01:14:47;10.45;;;4.72;;
78148;SDS011;67396;42.664;23.382;2023-08-17T01:17:37;8.45;;;5.15;;
78148;SDS011;67396;42.664;23.382;2023-08-17T01:20:08;14.95;;;4.88;;
78148;SDS011;67396;42.664;23.382;2023-08-17T01:22:37;6.88;;;4.13;;
78148;SDS011;67396;42.664;23.382;2023-08-17T01:25:06;7.15;;;4.80;;
78148;SDS011;67396;42.664;23.382;2023-08-17T01:27:44;7.07;;;4.85;;
78148;SDS011;67396;42.664;23.382;2023-08-17T01:30:14;11.23;;;4.47;;
78148;SDS011;67396;42.664;23.382;2023-08-17T01:37:44;8.27;;;4.03;;
78148;SDS011;67396;42.664;23.382;2023-08-17T01:40:10;8.82;;;5.05;;
78148;SDS011;67396;42.664;23.382;2023-08-17T01:42:38;7.13;;;3.78;;
78148;SDS011;67396;42.664;23.382;2023-08-17T01:45:04;6.00;;;4.05;;
78148;SDS011;67396;42.664;23.382;2023-08-17T01:47:30;6.68;;;4.35;;
78148;SDS011;67396;42.664;23.382;2023-08-17T01:49:56;8.60;;;4.05;;
78148;SDS011;67396;42.664;23.382;2023-08-17T01:52:25;9.77;;;3.92;;
78148;SDS011;67396;42.664;23.382;2023-08-17T01:54:53;8.10;;;4.18;;
78148;SDS011;67396;42.664;23.382;2023-08-17T01:57:18;9.40;;;4.07;;
78148;SDS011;67396;42.664;23.382;2023-08-17T01:59:43;9.57;;;4.03;;
78148;SDS011;67396;42.664;23.382;2023-08-17T02:02:09;7.07;;;4.35;;
78148;SDS011;67396;42.664;23.382;2023-08-17T02:04:36;8.18;;;5.30;;
78148;SDS011;67396;42.664;23.382;2023-08-17T02:07:01;7.10;;;3.80;;
78148;SDS011;67396;42.664;23.382;2023-08-17T02:09:27;10.15;;;4.07;;
78148;SDS011;67396;42.664;23.382;2023-08-17T02:11:53;8.90;;;3.92;;
78148;SDS011;67396;42.664;23.382;2023-08-17T02:14:18;12.52;;;4.93;;
78148;SDS011;67396;42.664;23.382;2023-08-17T02:16:43;6.80;;;3.97;;
78148;SDS011;67396;42.664;23.382;2023-08-17T02:19:09;12.15;;;4.35;;
78148;SDS011;67396;42.664;23.382;2023-08-17T02:21:34;7.43;;;4.40;;
78148;SDS011;67396;42.664;23.382;2023-08-17T02:23:59;6.97;;;4.20;;
78148;SDS011;67396;42.664;23.382;2023-08-17T02:26:25;8.68;;;4.15;;
78148;SDS011;67396;42.664;23.382;2023-08-17T02:28:50;10.27;;;4.50;;
78148;SDS011;67396;42.664;23.382;2023-08-17T02:31:15;8.07;;;4.45;;
78148;SDS011;67396;42.664;23.382;2023-08-17T02:33:41;7.40;;;4.10;;
78148;SDS011;67396;42.664;23.382;2023-08-17T02:36:06;9.18;;;4.30;;
78148;SDS011;67396;42.664;23.382;2023-08-17T02:38:32;9.85;;;3.90;;
78148;SDS011;67396;42.664;23.382;2023-08-17T02:40:58;8.00;;;4.07;;
78148;SDS011;67396;42.664;23.382;2023-08-17T02:43:23;6.32;;;4.07;;
78148;SDS011;67396;42.664;23.382;2023-08-17T02:45:49;6.65;;;4.07;;
78148;SDS011;67396;42.664;23.382;2023-08-17T02:48:14;9.98;;;4.53;;
78148;SDS011;67396;42.664;23.382;2023-08-17T02:50:39;5.93;;;3.80;;
78148;SDS011;67396;42.664;23.382;2023-08-17T02:53:05;7.00;;;3.90;;
78148;SDS011;67396;42.664;23.382;2023-08-17T02:55:30;11.45;;;3.63;;
78148;SDS011;67396;42.664;23.382;2023-08-17T02:57:55;5.95;;;3.63;;
78148;SDS011;67396;42.664;23.382;2023-08-17T03:00:21;8.77;;;4.70;;
78148;SDS011;67396;42.664;23.382;2023-08-17T03:02:46;6.85;;;4.07;;
78148;SDS011;67396;42.664;23.382;2023-08-17T03:05:12;8.18;;;4.47;;
78148;SDS011;67396;42.664;23.382;2023-08-17T03:07:37;7.20;;;4.00;;
78148;SDS011;67396;42.664;23.382;2023-08-17T03:10:03;7.30;;;4.10;;
78148;SDS011;67396;42.664;23.382;2023-08-17T03:12:30;5.50;;;3.70;;
78148;SDS011;67396;42.664;23.382;2023-08-17T03:14:55;5.95;;;4.13;;
78148;SDS011;67396;42.664;23.382;2023-08-17T03:17:20;8.90;;;4.38;;
78148;SDS011;67396;42.664;23.382;2023-08-17T03:19:46;12.07;;;4.47;;
78148;SDS011;67396;42.664;23.382;2023-08-17T03:22:11;9.10;;;4.30;;
78148;SDS011;67396;42.664;23.382;2023-08-17T03:24:37;7.30;;;4.18;;
78148;SDS011;67396;42.664;23.382;2023-08-17T03:27:02;6.70;;;4.00;;
78148;SDS011;67396;42.664;23.382;2023-08-17T03:29:28;6.53;;;3.45;;
78148;SDS011;67396;42.664;23.382;2023-08-17T03:31:53;7.63;;;3.75;;
78148;SDS011;67396;42.664;23.382;2023-08-17T03:34:18;8.35;;;4.43;;
78148;SDS011;67396;42.664;23.382;2023-08-17T03:36:44;5.65;;;4.15;;
78148;SDS011;67396;42.664;23.382;2023-08-17T03:39:09;6.75;;;3.45;;
78148;SDS011;67396;42.664;23.382;2023-08-17T03:41:35;9.85;;;3.58;;
78148;SDS011;67396;42.664;23.382;2023-08-17T03:44:02;6.93;;;3.70;;
78148;SDS011;67396;42.664;23.382;2023-08-17T03:46:28;15.13;;;4.25;;
78148;SDS011;67396;42.664;23.382;2023-08-17T03:48:54;9.60;;;4.18;;
78148;SDS011;67396;42.664;23.382;2023-08-17T03:51:19;6.18;;;4.00;;
78148;SDS011;67396;42.664;23.382;2023-08-17T03:53:44;5.68;;;3.63;;
78148;SDS011;67396;42.664;23.382;2023-08-17T03:56:10;7.18;;;4.03;;
78148;SDS011;67396;42.664;23.382;2023-08-17T03:58:35;7.00;;;4.05;;
78148;SDS011;67396;42.664;23.382;2023-08-17T04:01:01;10.20;;;3.67;;
78148;SDS011;67396;42.664;23.382;2023-08-17T04:03:28;7.43;;;3.80;;
78148;SDS011;67396;42.664;23.382;2023-08-17T04:05:53;6.82;;;3.80;;
78148;SDS011;67396;42.664;23.382;2023-08-17T04:08:18;7.82;;;3.80;;
78148;SDS011;67396;42.664;23.382;2023-08-17T04:10:44;8.02;;;4.07;;
78148;SDS011;67396;42.664;23.382;2023-08-17T04:13:09;7.90;;;3.83;;
78148;SDS011;67396;42.664;23.382;2023-08-17T04:15:35;5.80;;;3.58;;
78148;SDS011;67396;42.664;23.382;2023-08-17T04:18:00;6.20;;;3.53;;
78148;SDS011;67396;42.664;23.382;2023-08-17T04:20:25;7.97;;;3.83;;
78148;SDS011;67396;42.664;23.382;2023-08-17T04:22:51;7.75;;;3.78;;
78148;SDS011;67396;42.664;23.382;2023-08-17T04:25:16;6.30;;;3.60;;
78148;SDS011;67396;42.664;23.382;2023-08-17T04:27:42;13.77;;;4.93;;
78148;SDS011;67396;42.664;23.382;2023-08-17T04:30:07;10.93;;;2.95;;
78148;SDS011;67396;42.664;23.382;2023-08-17T04:32:34;8.55;;;3.55;;
78148;SDS011;67396;42.664;23.382;2023-08-17T04:34:59;10.18;;;4.32;;
78148;SDS011;67396;42.664;23.382;2023-08-17T04:37:24;6.07;;;2.95;;
78148;SDS011;67396;42.664;23.382;2023-08-17T04:39:50;7.22;;;3.30;;
78148;SDS011;67396;42.664;23.382;2023-08-17T04:42:16;6.57;;;3.38;;
78148;SDS011;67396;42.664;23.382;2023-08-17T04:44:41;5.10;;;3.33;;
78148;SDS011;67396;42.664;23.382;2023-08-17T04:47:07;5.78;;;3.17;;
78148;SDS011;67396;42.664;23.382;2023-08-17T04:49:32;6.80;;;3.50;;
78148;SDS011;67396;42.664;23.382;2023-08-17T04:51:58;14.38;;;5.85;;
78148;SDS011;67396;42.664;23.382;2023-08-17T04:54:24;7.40;;;4.13;;
78148;SDS011;67396;42.664;23.382;2023-08-17T04:56:49;9.35;;;4.70;;
78148;SDS011;67396;42.664;23.382;2023-08-17T04:59:14;12.98;;;7.75;;
78148;SDS011;67396;42.664;23.382;2023-08-17T05:01:40;8.77;;;5.63;;
78148;SDS011;67396;42.664;23.382;2023-08-17T05:04:05;9.20;;;4.32;;
78148;SDS011;67396;42.664;23.382;2023-08-17T05:06:31;8.65;;;3.53;;
78148;SDS011;67396;42.664;23.382;2023-08-17T05:08:56;10.88;;;3.45;;
78148;SDS011;67396;42.664;23.382;2023-08-17T05:11:22;10.00;;;2.80;;
78148;SDS011;67396;42.664;23.382;2023-08-17T05:13:48;5.10;;;2.78;;
78148;SDS011;67396;42.664;23.382;2023-08-17T05:16:14;6.25;;;2.70;;
78148;SDS011;67396;42.664;23.382;2023-08-17T05:18:39;7.07;;;3.60;;
78148;SDS011;67396;42.664;23.382;2023-08-17T05:21:05;6.97;;;3.30;;
78148;SDS011;67396;42.664;23.382;2023-08-17T05:23:31;6.82;;;3.40;;
78148;SDS011;67396;42.664;23.382;2023-08-17T05:25:56;12.43;;;5.10;;
78148;SDS011;67396;42.664;23.382;2023-08-17T05:28:22;11.20;;;5.75;;
78148;SDS011;67396;42.664;23.382;2023-08-17T05:30:48;15.70;;;6.32;;
78148;SDS011;67396;42.664;23.382;2023-08-17T05:33:14;17.20;;;5.80;;
78148;SDS011;67396;42.664;23.382;2023-08-17T05:35:39;10.07;;;5.72;;
78148;SDS011;67396;42.664;23.382;2023-08-17T05:38:05;13.32;;;5.53;;
78148;SDS011;67396;42.664;23.382;2023-08-17T05:40:31;24.30;;;6.93;;
78148;SDS011;67396;42.664;23.382;2023-08-17T05:42:57;12.18;;;4.85;;
78148;SDS011;67396;42.664;23.382;2023-08-17T05:45:22;14.77;;;4.57;;
78148;SDS011;67396;42.664;23.382;2023-08-17T05:47:47;17.17;;;6.68;;
78148;SDS011;67396;42.664;23.382;2023-08-17T05:50:13;11.00;;;5.28;;
78148;SDS011;67396;42.664;23.382;2023-08-17T05:52:40;11.32;;;4.88;;
78148;SDS011;67396;42.664;23.382;2023-08-17T05:55:06;14.20;;;5.22;;
78148;SDS011;67396;42.664;23.382;2023-08-17T05:57:32;11.35;;;4.50;;
78148;SDS011;67396;42.664;23.382;2023-08-17T05:59:57;7.00;;;3.80;;
78148;SDS011;67396;42.664;23.382;2023-08-17T06:02:22;6.88;;;3.65;;
78148;SDS011;67396;42.664;23.382;2023-08-17T06:04:48;10.55;;;4.38;;
78148;SDS011;67396;42.664;23.382;2023-08-17T06:07:13;18.17;;;5.50;;
78148;SDS011;67396;42.664;23.382;2023-08-17T06:09:39;11.45;;;4.10;;
78148;SDS011;67396;42.664;23.382;2023-08-17T06:12:04;8.55;;;4.50;;
78148;SDS011;67396;42.664;23.382;2023-08-17T06:14:30;9.48;;;4.05;;
78148;SDS011;67396;42.664;23.382;2023-08-17T06:16:58;10.43;;;4.55;;
78148;SDS011;67396;42.664;23.382;2023-08-17T06:19:23;13.35;;;4.65;;
78148;SDS011;67396;42.664;23.382;2023-08-17T06:21:48;7.22;;;3.45;;
78148;SDS011;67396;42.664;23.382;2023-08-17T06:24:14;11.75;;;4.40;;
78148;SDS011;67396;42.664;23.382;2023-08-17T06:26:39;8.90;;;4.57;;
78148;SDS011;67396;42.664;23.382;2023-08-17T06:29:05;6.13;;;4.45;;
78148;SDS011;67396;42.664;23.382;2023-08-17T06:31:30;7.43;;;3.97;;
78148;SDS011;67396;42.664;23.382;2023-08-17T06:33:56;8.32;;;4.35;;
78148;SDS011;67396;42.664;23.382;2023-08-17T06:36:21;14.32;;;5.32;;
78148;SDS011;67396;42.664;23.382;2023-08-17T06:38:47;5.90;;;4.43;;
78148;SDS011;67396;42.664;23.382;2023-08-17T06:41:12;14.77;;;5.55;;
78148;SDS011;67396;42.664;23.382;2023-08-17T06:43:38;11.63;;;6.80;;
78148;SDS011;67396;42.664;23.382;2023-08-17T06:46:03;9.57;;;6.32;;
78148;SDS011;67396;42.664;23.382;2023-08-17T06:48:29;8.63;;;6.60;;
78148;SDS011;67396;42.664;23.382;2023-08-17T06:50:56;9.63;;;6.88;;
78148;SDS011;67396;42.664;23.382;2023-08-17T06:53:21;8.85;;;5.93;;
78148;SDS011;67396;42.664;23.382;2023-08-17T06:55:47;10.45;;;5.53;;
78148;SDS011;67396;42.664;23.382;2023-08-17T06:58:12;7.80;;;6.18;;
78148;SDS011;67396;42.664;23.382;2023-08-17T07:00:38;9.57;;;5.80;;
78148;SDS011;67396;42.664;23.382;2023-08-17T07:03:05;10.32;;;6.57;;
78148;SDS011;67396;42.664;23.382;2023-08-17T07:05:31;10.80;;;6.43;;
78148;SDS011;67396;42.664;23.382;2023-08-17T07:07:57;9.48;;;5.70;;
78148;SDS011;67396;42.664;23.382;2023-08-17T07:10:24;10.80;;;5.70;;
78148;SDS011;67396;42.664;23.382;2023-08-17T07:12:49;8.35;;;5.78;;
78148;SDS011;67396;42.664;23.382;2023-08-17T07:15:15;12.52;;;5.63;;
78148;SDS011;67396;42.664;23.382;2023-08-17T07:17:40;8.73;;;5.68;;
78148;SDS011;67396;42.664;23.382;2023-08-17T07:20:06;12.38;;;6.13;;
78148;SDS011;67396;42.664;23.382;2023-08-17T07:22:36;11.23;;;5.72;;
78148;SDS011;67396;42.664;23.382;2023-08-17T07:25:01;9.35;;;6.10;;
78148;SDS011;67396;42.664;23.382;2023-08-17T07:27:28;10.73;;;6.13;;
78148;SDS011;67396;42.664;23.382;2023-08-17T07:29:55;9.07;;;5.68;;
78148;SDS011;67396;42.664;23.382;2023-08-17T07:32:20;9.52;;;5.45;;
78148;SDS011;67396;42.664;23.382;2023-08-17T07:34:46;9.60;;;5.07;;
78148;SDS011;67396;42.664;23.382;2023-08-17T07:37:12;6.65;;;4.10;;
78148;SDS011;67396;42.664;23.382;2023-08-17T07:39:38;5.40;;;3.60;;
78148;SDS011;67396;42.664;23.382;2023-08-17T07:42:03;7.65;;;4.35;;
78148;SDS011;67396;42.664;23.382;2023-08-17T07:44:29;7.40;;;3.85;;
78148;SDS011;67396;42.664;23.382;2023-08-17T07:46:56;5.38;;;3.60;;
78148;SDS011;67396;42.664;23.382;2023-08-17T07:49:22;6.75;;;3.40;;
78148;SDS011;67396;42.664;23.382;2023-08-17T07:51:49;10.68;;;3.85;;
78148;SDS011;67396;42.664;23.382;2023-08-17T07:54:14;6.07;;;3.40;;
78148;SDS011;67396;42.664;23.382;2023-08-17T07:56:40;3.92;;;3.53;;
78148;SDS011;67396;42.664;23.382;2023-08-17T07:59:05;5.88;;;3.55;;
78148;SDS011;67396;42.664;23.382;2023-08-17T08:01:30;12.25;;;3.67;;
78148;SDS011;67396;42.664;23.382;2023-08-17T08:03:56;8.88;;;4.07;;
78148;SDS011;67396;42.664;23.382;2023-08-17T08:06:21;4.88;;;3.53;;
78148;SDS011;67396;42.664;23.382;2023-08-17T08:08:48;5.20;;;3.53;;
78148;SDS011;67396;42.664;23.382;2023-08-17T08:11:13;8.10;;;3.95;;
78148;SDS011;67396;42.664;23.382;2023-08-17T08:13:38;7.13;;;4.22;;
78148;SDS011;67396;42.664;23.382;2023-08-17T08:16:04;5.43;;;3.95;;
78148;SDS011;67396;42.664;23.382;2023-08-17T08:18:30;7.82;;;4.10;;
78148;SDS011;67396;42.664;23.382;2023-08-17T08:20:56;6.53;;;3.80;;
78148;SDS011;67396;42.664;23.382;2023-08-17T08:23:21;6.95;;;3.33;;
78148;SDS011;67396;42.664;23.382;2023-08-17T08:25:46;9.18;;;3.88;;
78148;SDS011;67396;42.664;23.382;2023-08-17T08:28:12;6.78;;;4.10;;
78148;SDS011;67396;42.664;23.382;2023-08-17T08:30:37;9.02;;;3.55;;
78148;SDS011;67396;42.664;23.382;2023-08-17T08:33:03;4.95;;;3.95;;
78148;SDS011;67396;42.664;23.382;2023-08-17T08:35:28;5.60;;;3.75;;
78148;SDS011;67396;42.664;23.382;2023-08-17T08:37:54;7.75;;;4.10;;
78148;SDS011;67396;42.664;23.382;2023-08-17T08:40:26;6.85;;;4.25;;
78148;SDS011;67396;42.664;23.382;2023-08-17T08:42:53;6.10;;;3.80;;
78148;SDS011;67396;42.664;23.382;2023-08-17T08:45:18;5.22;;;2.72;;
78148;SDS011;67396;42.664;23.382;2023-08-17T08:47:46;6.68;;;4.10;;
78148;SDS011;67396;42.664;23.382;2023-08-17T08:50:12;6.28;;;4.28;;
78148;SDS011;67396;42.664;23.382;2023-08-17T08:52:45;10.50;;;3.50;;
78148;SDS011;67396;42.664;23.382;2023-08-17T08:55:19;9.30;;;4.20;;
78148;SDS011;67396;42.664;23.382;2023-08-17T08:57:48;8.85;;;4.82;;
78148;SDS011;67396;42.664;23.382;2023-08-17T09:00:15;10.32;;;4.18;;
78148;SDS011;67396;42.664;23.382;2023-08-17T09:02:42;9.95;;;4.15;;
78148;SDS011;67396;42.664;23.382;2023-08-17T09:05:10;4.95;;;3.55;;
78148;SDS011;67396;42.664;23.382;2023-08-17T09:07:36;4.53;;;3.35;;
78148;SDS011;67396;42.664;23.382;2023-08-17T09:10:02;7.13;;;3.60;;
78148;SDS011;67396;42.664;23.382;2023-08-17T09:12:28;6.10;;;3.63;;
78148;SDS011;67396;42.664;23.382;2023-08-17T09:14:55;6.93;;;3.83;;
78148;SDS011;67396;42.664;23.382;2023-08-17T09:17:23;9.68;;;4.03;;
78148;SDS011;67396;42.664;23.382;2023-08-17T09:19:50;8.85;;;3.53;;
78148;SDS011;67396;42.664;23.382;2023-08-17T09:22:22;9.23;;;3.90;;
78148;SDS011;67396;42.664;23.382;2023-08-17T09:24:49;7.47;;;3.75;;
78148;SDS011;67396;42.664;23.382;2023-08-17T09:27:14;5.93;;;3.83;;
78148;SDS011;67396;42.664;23.382;2023-08-17T09:29:42;6.78;;;3.50;;
78148;SDS011;67396;42.664;23.382;2023-08-17T09:32:10;6.00;;;3.42;;
78148;SDS011;67396;42.664;23.382;2023-08-17T09:34:36;2.30;;;2.05;;
78148;SDS011;67396;42.664;23.382;2023-08-17T09:37:05;5.82;;;3.42;;
78148;SDS011;67396;42.664;23.382;2023-08-17T09:39:31;7.57;;;3.17;;
78148;SDS011;67396;42.664;23.382;2023-08-17T09:41:56;7.55;;;2.85;;
78148;SDS011;67396;42.664;23.382;2023-08-17T09:44:22;6.68;;;2.90;;
78148;SDS011;67396;42.664;23.382;2023-08-17T09:46:48;5.00;;;2.67;;
78148;SDS011;67396;42.664;23.382;2023-08-17T09:49:13;5.63;;;2.50;;
78148;SDS011;67396;42.664;23.382;2023-08-17T09:51:42;7.30;;;2.90;;
78148;SDS011;67396;42.664;23.382;2023-08-17T09:54:20;7.88;;;2.35;;
78148;SDS011;67396;42.664;23.382;2023-08-17T09:56:48;5.38;;;2.58;;
78148;SDS011;67396;42.664;23.382;2023-08-17T09:59:15;4.70;;;2.72;;
78148;SDS011;67396;42.664;23.382;2023-08-17T10:01:40;3.17;;;2.78;;
78148;SDS011;67396;42.664;23.382;2023-08-17T10:04:08;3.53;;;2.60;;
78148;SDS011;67396;42.664;23.382;2023-08-17T10:06:35;8.38;;;3.28;;
78148;SDS011;67396;42.664;23.382;2023-08-17T10:09:03;3.22;;;2.60;;
78148;SDS011;67396;42.664;23.382;2023-08-17T10:11:30;5.03;;;2.72;;
78148;SDS011;67396;42.664;23.382;2023-08-17T10:14:01;5.50;;;2.78;;
78148;SDS011;67396;42.664;23.382;2023-08-17T10:16:40;4.88;;;2.75;;
78148;SDS011;67396;42.664;23.382;2023-08-17T10:19:13;4.10;;;2.80;;
78148;SDS011;67396;42.664;23.382;2023-08-17T10:24:43;4.38;;;2.83;;
78148;SDS011;67396;42.664;23.382;2023-08-17T10:27:10;3.75;;;2.83;;
78148;SDS011;67396;42.664;23.382;2023-08-17T10:29:38;8.13;;;2.90;;
78148;SDS011;67396;42.664;23.382;2023-08-17T10:32:05;4.13;;;2.53;;
78148;SDS011;67396;42.664;23.382;2023-08-17T10:34:31;4.07;;;2.50;;
78148;SDS011;67396;42.664;23.382;2023-08-17T10:36:58;3.55;;;2.10;;
78148;SDS011;67396;42.664;23.382;2023-08-17T10:39:26;8.40;;;3.10;;
78148;SDS011;67396;42.664;23.382;2023-08-17T10:41:52;6.40;;;3.20;;
78148;SDS011;67396;42.664;23.382;2023-08-17T10:52:25;4.10;;;2.10;;
78148;SDS011;67396;42.664;23.382;2023-08-17T10:54:52;3.63;;;2.70;;
78148;SDS011;67396;42.664;23.382;2023-08-17T10:57:29;3.35;;;2.20;;
78148;SDS011;67396;42.664;23.382;2023-08-17T11:02:35;8.48;;;2.97;;
78148;SDS011;67396;42.664;23.382;2023-08-17T11:05:02;5.70;;;3.95;;
78148;SDS011;67396;42.664;23.382;2023-08-17T11:07:38;5.68;;;3.88;;
78148;SDS011;67396;42.664;23.382;2023-08-17T11:12:44;4.82;;;3.53;;
78148;SDS011;67396;42.664;23.382;2023-08-17T11:15:09;4.72;;;3.40;;
78148;SDS011;67396;42.664;23.382;2023-08-17T11:17:34;8.55;;;4.38;;
78148;SDS011;67396;42.664;23.382;2023-08-17T11:20:00;4.80;;;3.58;;
78148;SDS011;67396;42.664;23.382;2023-08-17T11:22:26;4.97;;;3.60;;
78148;SDS011;67396;42.664;23.382;2023-08-17T11:24:52;8.18;;;3.30;;
78148;SDS011;67396;42.664;23.382;2023-08-17T11:27:18;4.63;;;2.40;;
78148;SDS011;67396;42.664;23.382;2023-08-17T11:29:45;4.85;;;2.88;;
78148;SDS011;67396;42.664;23.382;2023-08-17T11:32:10;4.28;;;3.20;;
78148;SDS011;67396;42.664;23.382;2023-08-17T11:34:37;4.28;;;3.10;;
78148;SDS011;67396;42.664;23.382;2023-08-17T11:37:03;4.97;;;3.20;;
78148;SDS011;67396;42.664;23.382;2023-08-17T11:39:32;11.63;;;3.70;;
78148;SDS011;67396;42.664;23.382;2023-08-17T11:42:00;4.97;;;3.20;;
78148;SDS011;67396;42.664;23.382;2023-08-17T11:44:25;7.68;;;4.40;;
78148;SDS011;67396;42.664;23.382;2023-08-17T11:46:51;5.47;;;3.83;;
78148;SDS011;67396;42.664;23.382;2023-08-17T11:49:17;11.60;;;4.30;;
78148;SDS011;67396;42.664;23.382;2023-08-17T11:51:42;8.98;;;3.83;;
78148;SDS011;67396;42.664;23.382;2023-08-17T11:54:08;11.90;;;4.35;;
78148;SDS011;67396;42.664;23.382;2023-08-17T11:56:33;5.05;;;3.95;;
78148;SDS011;67396;42.664;23.382;2023-08-17T11:59:07;5.28;;;3.88;;
78148;SDS011;67396;42.664;23.382;2023-08-17T12:01:36;4.63;;;3.50;;
78148;SDS011;67396;42.664;23.382;2023-08-17T12:04:05;6.90;;;4.18;;
78148;SDS011;67396;42.664;23.382;2023-08-17T12:06:32;9.35;;;3.58;;
78148;SDS011;67396;42.664;23.382;2023-08-17T12:08:57;6.78;;;3.63;;
78148;SDS011;67396;42.664;23.382;2023-08-17T12:11:23;8.05;;;3.42;;
78148;SDS011;67396;42.664;23.382;2023-08-17T12:13:52;6.25;;;3.00;;
78148;SDS011;67396;42.664;23.382;2023-08-17T12:16:19;3.83;;;2.72;;
78148;SDS011;67396;42.664;23.382;2023-08-17T12:18:47;4.50;;;3.75;;
78148;SDS011;67396;42.664;23.382;2023-08-17T12:21:13;7.13;;;3.83;;
78148;SDS011;67396;42.664;23.382;2023-08-17T12:23:39;6.70;;;3.90;;
78148;SDS011;67396;42.664;23.382;2023-08-17T12:26:04;8.73;;;4.40;;
78148;SDS011;67396;42.664;23.382;2023-08-17T12:28:29;10.18;;;4.05;;
78148;SDS011;67396;42.664;23.382;2023-08-17T12:31:01;5.75;;;3.38;;
78148;SDS011;67396;42.664;23.382;2023-08-17T12:33:27;9.85;;;3.35;;
78148;SDS011;67396;42.664;23.382;2023-08-17T12:35:53;6.20;;;3.83;;
78148;SDS011;67396;42.664;23.382;2023-08-17T12:38:19;7.18;;;3.90;;
78148;SDS011;67396;42.664;23.382;2023-08-17T12:40:44;5.50;;;3.70;;
78148;SDS011;67396;42.664;23.382;2023-08-17T12:43:09;7.72;;;4.20;;
78148;SDS011;67396;42.664;23.382;2023-08-17T12:45:35;6.68;;;4.07;;
78148;SDS011;67396;42.664;23.382;2023-08-17T12:48:00;6.32;;;3.38;;
78148;SDS011;67396;42.664;23.382;2023-08-17T12:50:26;8.70;;;4.13;;
78148;SDS011;67396;42.664;23.382;2023-08-17T12:52:51;6.35;;;4.47;;
78148;SDS011;67396;42.664;23.382;2023-08-17T12:55:16;5.90;;;4.90;;
78148;SDS011;67396;42.664;23.382;2023-08-17T12:57:42;8.05;;;5.68;;
78148;SDS011;67396;42.664;23.382;2023-08-17T13:00:07;9.10;;;5.18;;
78148;SDS011;67396;42.664;23.382;2023-08-17T13:02:35;7.30;;;5.00;;
78148;SDS011;67396;42.664;23.382;2023-08-17T13:05:00;7.10;;;4.90;;
78148;SDS011;67396;42.664;23.382;2023-08-17T13:07:25;6.63;;;4.32;;
78148;SDS011;67396;42.664;23.382;2023-08-17T13:09:51;6.00;;;4.70;;
78148;SDS011;67396;42.664;23.382;2023-08-17T13:12:16;9.80;;;4.55;;
78148;SDS011;67396;42.664;23.382;2023-08-17T13:14:41;8.38;;;4.63;;
78148;SDS011;67396;42.664;23.382;2023-08-17T13:17:07;11.68;;;4.50;;
78148;SDS011;67396;42.664;23.382;2023-08-17T13:19:32;6.32;;;5.25;;
78148;SDS011;67396;42.664;23.382;2023-08-17T13:21:58;13.38;;;5.05;;
78148;SDS011;67396;42.664;23.382;2023-08-17T13:24:23;7.95;;;4.93;;
78148;SDS011;67396;42.664;23.382;2023-08-17T13:26:49;8.13;;;4.93;;
78148;SDS011;67396;42.664;23.382;2023-08-17T13:29:18;5.95;;;5.35;;
78148;SDS011;67396;42.664;23.382;2023-08-17T13:31:43;7.50;;;4.78;;
78148;SDS011;67396;42.664;23.382;2023-08-17T13:34:11;10.30;;;5.07;;
78148;SDS011;67396;42.664;23.382;2023-08-17T13:36:37;12.13;;;5.30;;
78148;SDS011;67396;42.664;23.382;2023-08-17T13:39:02;7.93;;;5.07;;
78148;SDS011;67396;42.664;23.382;2023-08-17T13:41:28;8.02;;;4.85;;
78148;SDS011;67396;42.664;23.382;2023-08-17T13:43:53;7.50;;;5.38;;
78148;SDS011;67396;42.664;23.382;2023-08-17T13:46:18;9.30;;;4.70;;
78148;SDS011;67396;42.664;23.382;2023-08-17T13:48:44;7.80;;;4.95;;
78148;SDS011;67396;42.664;23.382;2023-08-17T13:51:09;8.68;;;4.93;;
78148;SDS011;67396;42.664;23.382;2023-08-17T13:53:36;6.93;;;4.95;;
78148;SDS011;67396;42.664;23.382;2023-08-17T13:56:01;7.40;;;4.40;;
78148;SDS011;67396;42.664;23.382;2023-08-17T13:58:27;6.85;;;4.40;;
78148;SDS011;67396;42.664;23.382;2023-08-17T14:00:52;8.25;;;4.35;;
78148;SDS011;67396;42.664;23.382;2023-08-17T14:03:18;10.50;;;4.97;;
78148;SDS011;67396;42.664;23.382;2023-08-17T14:05:44;5.60;;;4.25;;
78148;SDS011;67396;42.664;23.382;2023-08-17T14:08:09;8.13;;;4.55;;
78148;SDS011;67396;42.664;23.382;2023-08-17T14:10:36;6.63;;;4.32;;
78148;SDS011;67396;42.664;23.382;2023-08-17T14:13:01;6.72;;;4.55;;
78148;SDS011;67396;42.664;23.382;2023-08-17T14:15:27;11.32;;;4.88;;
78148;SDS011;67396;42.664;23.382;2023-08-17T14:17:52;7.57;;;4.80;;
78148;SDS011;67396;42.664;23.382;2023-08-17T14:20:18;7.38;;;4.90;;
78148;SDS011;67396;42.664;23.382;2023-08-17T14:22:43;10.65;;;4.57;;
78148;SDS011;67396;42.664;23.382;2023-08-17T14:25:09;6.55;;;4.80;;
78148;SDS011;67396;42.664;23.382;2023-08-17T14:27:34;9.07;;;4.20;;
78148;SDS011;67396;42.664;23.382;2023-08-17T14:30:00;7.38;;;4.63;;
78148;SDS011;67396;42.664;23.382;2023-08-17T14:32:27;5.57;;;4.45;;
78148;SDS011;67396;42.664;23.382;2023-08-17T14:34:53;7.57;;;5.32;;
78148;SDS011;67396;42.664;23.382;2023-08-17T14:37:19;9.50;;;4.57;;
78148;SDS011;67396;42.664;23.382;2023-08-17T14:39:44;7.53;;;4.68;;
78148;SDS011;67396;42.664;23.382;2023-08-17T14:42:11;7.47;;;4.45;;
78148;SDS011;67396;42.664;23.382;2023-08-17T14:44:37;12.52;;;4.93;;
78148;SDS011;67396;42.664;23.382;2023-08-17T14:47:03;8.50;;;4.22;;